Time;durP1;ratioP1;P1;durP2;ratioP2;P2;SDS_P1;SDS_P2;PMS_P1;PMS_P2;Temp;Humidity;BMP_temperature;BMP_pressure;BME280_temperature;BME280_humidity;BME280_pressure;Samples;Min_cycle;Max_cycle;Signal;HPM_P1;HPM_P2
2023/01/31 00:01:38;;;;;;;17.00;9.10;;;;;;;0.38;95.75;97574.41;106741;1261;22534;-69
2023/01/31 00:04:08;;;;;;;16.50;9.20;;;;;;;0.33;96.01;97577.86;106594;1285;138628;-69
2023/01/31 00:06:41;;;;;;;15.30;9.00;;;;;;;0.30;95.99;97578.02;106399;1285;23334;-69
2023/01/31 00:09:10;;;;;;;14.40;8.20;;;;;;;0.27;96.42;97580.89;106414;1284;138167;-71
2023/01/31 00:11:37;;;;;;;15.80;9.00;;;;;;;0.25;96.60;97580.29;106507;1265;25245;-69
2023/01/31 00:14:05;;;;;;;15.60;9.30;;;;;;;0.23;96.68;97582.48;106481;1277;22561;-69
2023/01/31 00:16:32;;;;;;;14.60;8.30;;;;;;;0.22;97.05;97579.35;106262;1284;138120;-69
2023/01/31 00:18:59;;;;;;;17.00;9.70;;;;;;;0.22;97.20;97587.83;106505;1284;22533;-69
2023/01/31 00:21:29;;;;;;;13.60;8.20;;;;;;;0.22;97.37;97587.66;106250;1266;139889;-69
2023/01/31 00:23:56;;;;;;;;;;;;;;;0.22;97.49;97585.52;106390;1285;22518;-69
2023/01/31 00:26:28;;;;;;;13.00;7.60;;;;;;;0.21;97.58;97581.94;106310;1284;125144;-70
2023/01/31 00:28:57;;;;;;;15.60;7.30;;;;;;;0.21;97.61;97587.09;106675;1279;24476;-69
2023/01/31 00:31:25;;;;;;;12.80;7.40;;;;;;;0.21;97.89;97597.75;106393;1285;25356;-69
2023/01/31 00:33:53;;;;;;;12.20;7.30;;;;;;;0.20;98.16;97594.95;106250;1285;137945;-69
2023/01/31 00:36:27;;;;;;;10.10;7.10;;;;;;;0.20;98.08;97596.75;106597;1284;22662;-69
2023/01/31 00:38:56;;;;;;;13.50;7.80;;;;;;;0.20;98.21;97595.31;106209;1285;138525;-70
2023/01/31 00:41:23;;;;;;;;;;;;;;;0.21;98.22;97598.16;106266;1267;22595;-69
2023/01/31 00:43:51;;;;;;;16.60;8.60;;;;;;;0.19;98.40;97601.53;106261;1285;25273;-69
2023/01/31 00:46:19;;;;;;;13.70;7.50;;;;;;;0.18;98.24;97605.73;106133;1285;138988;-69
2023/01/31 00:48:47;;;;;;;13.20;8.00;;;;;;;0.18;98.24;97601.15;106284;1285;22560;-69
2023/01/31 00:51:14;;;;;;;13.10;7.80;;;;;;;0.18;98.29;97601.09;106252;1266;138803;-69
2023/01/31 00:53:41;;;;;;;13.70;8.90;;;;;;;0.20;98.46;97596.69;106293;1284;22534;-69
2023/01/31 00:56:13;;;;;;;10.40;5.60;;;;;;;0.19;98.46;97598.36;106274;1283;23960;-69
2023/01/31 00:58:42;;;;;;;17.40;8.70;;;;;;;0.20;98.17;97602.36;106241;1285;138410;-69
2023/01/31 01:01:21;;;;;;;12.80;7.60;;;;;;;0.21;98.28;97607.27;106488;1267;22431;-70
2023/01/31 01:03:51;;;;;;;12.90;7.90;;;;;;;0.21;98.14;97615.71;106268;1285;138172;-69
2023/01/31 01:06:19;;;;;;;17.30;8.30;;;;;;;0.22;98.39;97626.05;106276;1285;25357;-69
2023/01/31 01:08:46;;;;;;;14.60;8.20;;;;;;;0.20;98.26;97627.12;106272;1284;139088;-70
2023/01/31 01:11:17;;;;;;;13.40;8.00;;;;;;;0.19;98.20;97636.02;106422;1267;23280;-70
2023/01/31 01:13:44;;;;;;;14.60;8.60;;;;;;;0.18;98.12;97635.80;106457;1284;24290;-69
2023/01/31 01:16:18;;;;;;;12.70;7.60;;;;;;;0.15;98.24;97638.30;106186;1284;139126;-70
2023/01/31 01:18:48;;;;;;;14.50;7.60;;;;;;;0.13;98.26;97634.66;106240;1285;23171;-70
2023/01/31 01:21:20;;;;;;;13.00;7.40;;;;;;;0.11;98.50;97627.94;106295;1265;138162;-70
2023/01/31 01:23:48;;;;;;;12.10;7.20;;;;;;;0.10;98.70;97628.21;106513;1281;25253;-69
2023/01/31 01:26:21;;;;;;;13.80;7.60;;;;;;;0.10;98.74;97635.35;106355;1284;24349;-69
2023/01/31 01:28:49;;;;;;;11.40;6.90;;;;;;;0.10;98.89;97635.55;106358;1284;24314;-69
2023/01/31 01:31:18;;;;;;;12.90;8.00;;;;;;;0.09;99.21;97637.08;106310;1267;24326;-70
2023/01/31 01:33:47;;;;;;;12.30;7.40;;;;;;;0.09;98.85;97634.23;106183;1285;138163;-70
2023/01/31 01:36:16;;;;;;;14.40;7.60;;;;;;;0.09;99.11;97632.59;106261;1273;22737;-69
2023/01/31 01:38:44;;;;;;;12.20;7.30;;;;;;;0.09;99.24;97633.33;107569;1277;138343;-70
2023/01/31 01:41:13;;;;;;;11.20;7.40;;;;;;;0.10;99.35;97640.88;106230;1268;22556;-70
2023/01/31 01:43:55;;;;;;;10.40;6.50;;;;;;;0.11;99.52;97641.98;106345;1284;24176;-70
2023/01/31 01:46:40;;;;;;;10.50;6.60;;;;;;;0.11;99.51;97643.92;106294;1284;138372;-69
2023/01/31 01:49:22;;;;;;;8.90;6.30;;;;;;;0.12;99.86;97644.34;106264;1284;22954;-70
2023/01/31 01:51:51;;;;;;;11.80;6.90;;;;;;;0.14;99.44;97648.30;106159;1284;137885;-69
2023/01/31 01:54:24;;;;;;;11.70;6.80;;;;;;;0.14;99.79;97650.03;106290;1285;25381;-70
2023/01/31 01:56:58;;;;;;;11.30;6.90;;;;;;;0.15;99.82;97651.84;106328;1284;138227;-70
2023/01/31 01:59:32;;;;;;;13.60;7.30;;;;;;;0.15;99.89;97656.79;106350;1284;22562;-70
2023/01/31 02:02:00;;;;;;;13.70;7.10;;;;;;;0.17;99.82;97662.61;106300;1265;22553;-70
2023/01/31 02:04:33;;;;;;;10.00;6.00;;;;;;;0.18;99.91;97661.78;106320;1284;138547;-70
2023/01/31 02:07:01;;;;;;;8.90;5.10;;;;;;;0.19;99.91;97667.76;106365;1284;22687;-70
2023/01/31 02:10:01;;;;;;;8.80;5.80;;;;;;;0.20;100.00;97668.97;106517;1278;137811;-70
2023/01/31 02:12:30;;;;;;;7.50;5.40;;;;;;;0.21;99.95;97671.48;105954;1291;22706;-70
2023/01/31 02:14:57;;;;;;;12.70;5.60;;;;;;;0.22;99.99;97678.36;105612;1292;139148;-69
2023/01/31 02:17:25;;;;;;;9.80;4.50;;;;;;;0.22;99.94;97680.47;105723;1291;24274;-69
2023/01/31 02:20:18;;;;;;;10.10;4.80;;;;;;;0.23;100.00;97686.90;105794;1291;22543;-69
2023/01/31 02:23:23;;;;;;;8.50;5.00;;;;;;;0.24;100.00;97689.41;105701;1273;139039;-70
2023/01/31 02:26:11;;;;;;;9.20;3.90;;;;;;;0.26;99.92;97688.66;105755;1282;25527;-69
2023/01/31 02:29:00;;;;;;;9.70;4.90;;;;;;;0.28;99.92;97686.63;105781;1291;138477;-69
2023/01/31 02:31:46;;;;;;;8.80;3.60;;;;;;;0.30;99.99;97690.39;105819;1291;25258;-69
2023/01/31 02:34:20;;;;;;;10.00;4.10;;;;;;;0.32;99.89;97687.73;105678;1273;137862;-69
2023/01/31 02:36:59;;;;;;;8.80;4.10;;;;;;;0.33;99.86;97690.17;105830;1292;24390;-69
2023/01/31 02:39:33;;;;;;;10.10;4.60;;;;;;;0.34;99.64;97692.73;105813;1292;138753;-69
2023/01/31 02:42:09;;;;;;;11.70;4.80;;;;;;;0.35;99.78;97693.73;105709;1292;22558;-69
2023/01/31 02:44:58;;;;;;;12.70;5.50;;;;;;;0.35;99.55;97701.59;105671;1273;138208;-70
2023/01/31 02:47:46;;;;;;;13.50;5.30;;;;;;;0.35;99.54;97700.83;105813;1277;25430;-71
2023/01/31 02:50:26;;;;;;;;;;;;;;;0.37;99.79;97708.67;106182;1285;23462;-69
2023/01/31 02:52:55;;;;;;;11.40;3.50;;;;;;;0.37;99.39;97717.17;106454;1262;22626;-69
2023/01/31 02:58:19;;;;;;;13.50;4.30;;;;;;;0.40;99.14;97733.26;106871;1284;138599;-69
2023/01/31 03:00:48;;;;;;;10.70;4.30;;;;;;;0.41;99.28;97737.23;107130;1271;24256;-69
2023/01/31 03:03:23;;;;;;;11.50;4.30;;;;;;;0.43;99.19;97737.55;106462;1265;138821;-70
2023/01/31 03:06:24;;;;;;;12.30;4.70;;;;;;;0.45;99.05;97748.56;106427;1284;23756;-69
2023/01/31 03:08:58;;;;;;;15.90;4.40;;;;;;;0.46;98.98;97750.93;106258;1284;140230;-69
2023/01/31 03:11:39;;;;;;;14.40;5.20;;;;;;;0.47;98.84;97754.14;106335;1284;22552;-69
2023/01/31 03:14:38;;;;;;;12.10;5.00;;;;;;;0.48;98.77;97755.92;106470;1265;25241;-69
2023/01/31 03:17:33;;;;;;;8.60;4.30;;;;;;;0.49;98.77;97754.55;105830;1290;22619;-69
2023/01/31 03:20:21;;;;;;;15.90;5.10;;;;;;;0.49;98.56;97756.70;105878;1290;22664;-69
2023/01/31 03:22:53;;;;;;;11.40;4.40;;;;;;;0.50;98.57;97762.86;105792;1290;137898;-69
2023/01/31 03:25:23;;;;;;;19.90;4.50;;;;;;;0.50;98.54;97763.42;106019;1274;25675;-69
2023/01/31 03:27:57;;;;;;;13.20;3.50;;;;;;;0.52;98.13;97766.91;105762;1292;138417;-69
2023/01/31 03:30:33;;;;;;;14.80;4.10;;;;;;;0.53;97.72;97769.75;105836;1292;22561;-69
2023/01/31 03:33:11;;;;;;;14.40;3.70;;;;;;;0.56;96.98;97766.55;105703;1290;138591;-69
2023/01/31 03:35:45;;;;;;;14.40;2.90;;;;;;;0.59;96.52;97769.95;105893;1267;22835;-69
2023/01/31 03:38:47;;;;;;;10.10;3.10;;;;;;;0.62;95.93;97781.50;106031;1284;22553;-69
2023/01/31 03:41:33;;;;;;;7.40;3.00;;;;;;;0.64;95.72;97786.38;105869;1290;22553;-69
2023/01/31 03:44:27;;;;;;;13.00;3.40;;;;;;;0.66;95.41;97796.40;105884;1268;25302;-69
2023/01/31 03:47:04;;;;;;;16.50;3.60;;;;;;;0.66;95.21;97805.92;105490;1295;140385;-70
2023/01/31 03:49:33;;;;;;;18.20;3.30;;;;;;;0.68;95.25;97799.68;105356;1295;22549;-69
2023/01/31 03:52:06;;;;;;;13.90;2.90;;;;;;;0.68;95.01;97801.32;105397;1295;140137;-69
2023/01/31 03:54:39;;;;;;;13.10;3.60;;;;;;;0.68;95.00;97812.91;106038;1271;22587;-69
2023/01/31 03:57:19;;;;;;;11.70;3.40;;;;;;;0.67;94.88;97812.45;105945;1289;138875;-70
2023/01/31 03:59:54;;;;;;;17.50;3.50;;;;;;;0.67;94.96;97818.26;106062;1289;22549;-69
2023/01/31 04:02:27;;;;;;;12.40;2.90;;;;;;;0.65;94.76;97813.10;106115;1283;190243;-69
2023/01/31 04:05:01;;;;;;;11.90;3.10;;;;;;;0.64;94.75;97814.08;105830;1271;138771;-70
2023/01/31 04:07:28;;;;;;;8.00;2.60;;;;;;;0.64;94.51;97822.85;105860;1289;25489;-69
2023/01/31 04:09:55;;;;;;;10.80;3.30;;;;;;;0.63;94.68;97820.46;105794;1289;138454;-69
2023/01/31 04:12:22;;;;;;;10.70;2.80;;;;;;;0.63;94.55;97822.27;106059;1290;22766;-69
2023/01/31 04:14:49;;;;;;;10.70;2.70;;;;;;;0.62;94.54;97830.39;105977;1282;138252;-69
2023/01/31 04:17:16;;;;;;;12.10;2.80;;;;;;;0.62;94.27;97835.99;106064;1289;24312;-69
2023/01/31 04:19:43;;;;;;;17.90;2.90;;;;;;;0.62;94.63;97831.23;106063;1289;22753;-69
2023/01/31 04:22:10;;;;;;;16.10;2.80;;;;;;;0.61;94.62;97831.13;105988;1289;138088;-69
2023/01/31 04:24:37;;;;;;;12.20;2.90;;;;;;;0.61;94.33;97836.73;106187;1264;22546;-69
2023/01/31 04:27:03;;;;;;;15.90;3.40;;;;;;;0.60;94.20;97841.05;106184;1284;138773;-69
2023/01/31 04:29:30;;;;;;;14.50;4.00;;;;;;;0.59;94.08;97840.39;106322;1281;26531;-69
2023/01/31 04:31:57;;;;;;;11.10;4.10;;;;;;;0.58;94.01;97841.73;106347;1284;22656;-69
2023/01/31 04:34:24;;;;;;;17.00;3.80;;;;;;;0.54;94.06;97841.40;106218;1284;138020;-69
2023/01/31 04:36:51;;;;;;;11.80;3.30;;;;;;;0.53;93.89;97848.73;106270;1267;22650;-69
2023/01/31 04:39:18;;;;;;;14.30;3.10;;;;;;;0.50;93.90;97852.66;106175;1284;138748;-69
2023/01/31 04:41:45;;;;;;;14.80;3.50;;;;;;;0.49;93.94;97862.13;106465;1277;24266;-70
2023/01/31 04:44:12;;;;;;;13.60;3.00;;;;;;;0.46;93.82;97857.52;106565;1285;25367;-69
2023/01/31 04:46:39;;;;;;;12.70;3.20;;;;;;;0.42;93.86;97867.23;106157;1266;138103;-69
2023/01/31 04:49:05;;;;;;;12.20;2.80;;;;;;;0.41;94.00;97877.59;106277;1285;25378;-69
2023/01/31 04:51:33;;;;;;;11.80;3.40;;;;;;;0.38;94.03;97876.92;106150;1284;138110;-69
2023/01/31 04:54:00;;;;;;;10.30;2.90;;;;;;;0.35;94.00;97874.93;106302;1284;25366;-69
2023/01/31 04:56:27;;;;;;;11.50;2.50;;;;;;;0.34;93.99;97876.35;106250;1263;22563;-69
2023/01/31 04:58:54;;;;;;;14.60;3.30;;;;;;;0.33;93.97;97885.86;106156;1285;137843;-69
2023/01/31 05:01:21;;;;;;;8.00;2.40;;;;;;;0.32;94.13;97896.32;106222;1285;24341;-69
2023/01/31 05:03:48;;;;;;;13.10;2.50;;;;;;;0.33;94.08;97903.98;106157;1285;137869;-69
2023/01/31 05:06:15;;;;;;;13.30;3.00;;;;;;;0.32;94.12;97905.05;106307;1284;24255;-69
2023/01/31 05:08:42;;;;;;;7.90;2.60;;;;;;;0.32;94.26;97904.39;106179;1284;139115;-70
2023/01/31 05:11:08;;;;;;;10.80;2.90;;;;;;;0.31;94.20;97909.87;106340;1284;22759;-69
2023/01/31 05:13:37;;;;;;;7.70;3.10;;;;;;;0.31;94.50;97910.31;106248;1284;24293;-69
2023/01/31 05:16:09;;;;;;;7.70;3.00;;;;;;;0.31;94.64;97920.87;106280;1268;137898;-69
2023/01/31 05:18:37;;;;;;;6.30;3.10;;;;;;;0.30;94.85;97927.41;106529;1285;22554;-70
2023/01/31 05:21:06;;;;;;;11.30;3.70;;;;;;;0.28;94.90;97932.41;106202;1278;139157;-69
2023/01/31 05:23:33;;;;;;;12.30;3.50;;;;;;;0.28;95.12;97933.48;106251;1285;22540;-70
2023/01/31 05:26:01;;;;;;;12.80;4.60;;;;;;;0.28;94.91;97935.63;106255;1262;22559;-69
2023/01/31 05:28:28;;;;;;;8.70;3.30;;;;;;;0.28;94.94;97945.77;106395;1285;139038;-69
2023/01/31 05:31:02;;;;;;;10.00;3.30;;;;;;;0.29;95.11;97950.39;106281;1285;25256;-69
2023/01/31 05:33:30;;;;;;;10.60;4.20;;;;;;;0.30;94.90;97950.27;106211;1284;138364;-70
2023/01/31 05:35:57;;;;;;;11.60;3.50;;;;;;;0.30;94.89;97951.46;106266;1273;22535;-69
2023/01/31 05:38:24;;;;;;;10.50;3.40;;;;;;;0.31;94.65;97952.42;106360;1286;25131;-69
2023/01/31 05:40:51;;;;;;;12.40;3.20;;;;;;;0.32;94.62;97958.55;106173;1285;137997;-69
2023/01/31 05:43:18;;;;;;;10.80;3.30;;;;;;;0.32;94.37;97961.00;106258;1276;23938;-69
2023/01/31 05:45:48;;;;;;;11.00;3.70;;;;;;;0.32;94.33;97963.48;106172;1285;138452;-69
2023/01/31 05:48:14;;;;;;;9.30;2.70;;;;;;;0.33;93.80;97965.88;106609;1265;22537;-69
2023/01/31 05:50:41;;;;;;;12.30;3.40;;;;;;;0.33;93.40;97969.79;106289;1283;138105;-69
2023/01/31 05:53:11;;;;;;;13.80;3.20;;;;;;;0.34;93.10;97978.62;106302;1285;24269;-70
2023/01/31 05:55:38;;;;;;;17.10;3.10;;;;;;;0.34;92.90;97983.40;106230;1285;24276;-69
2023/01/31 05:58:05;;;;;;;11.10;3.30;;;;;;;0.35;92.37;97984.20;106139;1266;138436;-69
2023/01/31 06:00:31;;;;;;;9.10;2.30;;;;;;;0.35;91.95;97986.14;106291;1285;25374;-69
2023/01/31 06:02:59;;;;;;;12.30;2.90;;;;;;;0.36;92.08;97986.51;106216;1274;139110;-69
2023/01/31 06:05:26;;;;;;;9.60;2.70;;;;;;;0.38;91.74;97994.19;106321;1284;22671;-69
2023/01/31 06:07:54;;;;;;;9.70;2.80;;;;;;;0.39;91.65;97994.74;106295;1265;22536;-70
2023/01/31 06:10:21;;;;;;;10.70;3.40;;;;;;;0.40;91.33;97998.09;106174;1284;137794;-69
2023/01/31 06:12:47;;;;;;;14.40;3.30;;;;;;;0.40;91.09;98002.25;106624;1274;22543;-69
2023/01/31 06:15:15;;;;;;;11.30;3.50;;;;;;;0.38;91.11;98004.90;106189;1284;138605;-69
2023/01/31 06:17:42;;;;;;;18.00;4.30;;;;;;;0.38;90.76;98008.12;106402;1280;25613;-69
2023/01/31 06:20:09;;;;;;;11.50;3.10;;;;;;;0.38;90.08;98016.11;106491;1285;22826;-70
2023/01/31 06:22:36;;;;;;;17.10;4.80;;;;;;;0.39;89.81;98023.75;106314;1284;138457;-69
2023/01/31 06:25:04;;;;;;;17.70;4.80;;;;;;;0.39;89.63;98024.57;106453;1284;22548;-69
2023/01/31 06:27:32;;;;;;;13.20;4.30;;;;;;;0.39;89.79;98029.48;106295;1265;138038;-70
2023/01/31 06:29:59;;;;;;;18.10;3.60;;;;;;;0.37;89.58;98029.83;106443;1284;23560;-70
2023/01/31 06:32:26;;;;;;;14.50;3.60;;;;;;;0.36;89.18;98038.31;106455;1284;25316;-70
2023/01/31 06:34:53;;;;;;;14.00;3.90;;;;;;;0.37;88.99;98039.88;106417;1284;138562;-69
2023/01/31 06:37:20;;;;;;;11.70;2.80;;;;;;;0.37;89.03;98045.60;106568;1261;22524;-70
2023/01/31 06:39:46;;;;;;;10.40;3.10;;;;;;;0.36;89.16;98045.67;106426;1283;139372;-69
2023/01/31 06:42:13;;;;;;;13.60;3.80;;;;;;;0.36;89.38;98047.94;106391;1284;23911;-70
2023/01/31 06:44:40;;;;;;;8.50;2.60;;;;;;;0.37;89.20;98044.28;106451;1283;138682;-70
2023/01/31 06:47:07;;;;;;;8.70;2.30;;;;;;;0.38;89.27;98052.70;106418;1284;23011;-70
2023/01/31 06:49:34;;;;;;;9.70;2.40;;;;;;;0.40;89.29;98057.01;106771;1281;22556;-69
2023/01/31 06:52:01;;;;;;;7.80;3.00;;;;;;;0.41;89.35;98063.87;106335;1285;138314;-70
2023/01/31 06:54:27;;;;;;;11.50;3.30;;;;;;;0.42;89.60;98064.73;106395;1284;24338;-69
2023/01/31 06:56:54;;;;;;;9.40;3.30;;;;;;;0.43;89.77;98066.02;106288;1285;138622;-69
2023/01/31 06:59:21;;;;;;;10.40;2.50;;;;;;;0.43;90.02;98073.73;106381;1275;26311;-69
2023/01/31 07:01:48;;;;;;;13.10;3.10;;;;;;;0.43;89.85;98076.45;106537;1284;22549;-69
2023/01/31 07:04:15;;;;;;;12.10;5.40;;;;;;;0.44;90.00;98086.88;106422;1281;138482;-69
2023/01/31 07:06:42;;;;;;;9.30;4.10;;;;;;;0.44;89.99;98088.23;106429;1284;22618;-69
2023/01/31 07:09:10;;;;;;;9.20;4.30;;;;;;;0.45;90.11;98096.21;106267;1276;138675;-69
2023/01/31 07:11:37;;;;;;;12.90;5.20;;;;;;;0.45;90.33;98099.75;106405;1274;22540;-69
2023/01/31 07:14:04;;;;;;;17.00;6.70;;;;;;;0.46;90.34;98108.39;106471;1284;22560;-70
2023/01/31 07:16:31;;;;;;;13.50;5.40;;;;;;;0.46;90.72;98113.04;106300;1285;138592;-69
2023/01/31 07:18:58;;;;;;;23.40;8.00;;;;;;;0.46;90.82;98119.63;106458;1268;25422;-69
2023/01/31 07:21:25;;;;;;;20.10;8.00;;;;;;;0.47;90.84;98123.14;106433;1283;138622;-69
2023/01/31 07:23:52;;;;;;;14.80;6.30;;;;;;;0.47;91.06;98126.32;106542;1284;25284;-70
2023/01/31 07:26:19;;;;;;;15.10;5.90;;;;;;;0.49;91.17;98129.71;106527;1281;22557;-70
2023/01/31 07:28:46;;;;;;;14.50;5.70;;;;;;;0.50;91.12;98138.10;106419;1276;138627;-70
2023/01/31 07:31:14;;;;;;;13.40;5.20;;;;;;;0.51;91.17;98141.20;106434;1284;22554;-69
2023/01/31 07:33:40;;;;;;;17.50;6.00;;;;;;;0.51;91.34;98139.58;106343;1285;138958;-70
2023/01/31 07:36:12;;;;;;;13.60;5.10;;;;;;;0.52;91.42;98145.34;106404;1284;24248;-69
2023/01/31 07:38:39;;;;;;;13.40;6.30;;;;;;;0.53;91.35;98147.37;106320;1284;138873;-70
2023/01/31 07:41:08;;;;;;;15.70;5.30;;;;;;;0.55;91.51;98149.16;106395;1285;22543;-70
2023/01/31 07:43:36;;;;;;;16.70;6.80;;;;;;;0.58;91.44;98152.20;107062;1285;22554;-70
2023/01/31 07:46:08;;;;;;;15.30;6.30;;;;;;;0.60;91.46;98151.73;106332;1285;138501;-69
2023/01/31 07:48:35;;;;;;;16.30;6.30;;;;;;;0.61;91.28;98155.86;107324;1264;23085;-70
2023/01/31 07:51:02;;;;;;;17.40;7.10;;;;;;;0.63;91.20;98157.79;106485;1273;23913;-70
2023/01/31 07:53:32;;;;;;;15.50;6.20;;;;;;;0.65;91.30;98158.19;106193;1284;138380;-69
2023/01/31 07:56:13;;;;;;;20.20;6.40;;;;;;;0.66;91.23;98157.33;106540;1285;25261;-70
2023/01/31 07:58:42;;;;;;;16.10;6.10;;;;;;;0.68;91.27;98160.86;106256;1262;138213;-70
2023/01/31 08:04:01;;;;;;;16.60;5.70;;;;;;;0.75;91.06;98165.95;106387;1282;138632;-70
2023/01/31 08:06:30;;;;;;;17.90;5.60;;;;;;;0.78;90.74;98167.39;106664;1285;22896;-70
2023/01/31 08:08:57;;;;;;;14.50;5.50;;;;;;;0.80;90.58;98176.36;107082;1264;22658;-71
2023/01/31 08:11:24;;;;;;;11.50;4.80;;;;;;;0.82;90.37;98177.41;106344;1283;138345;-70
2023/01/31 08:13:51;;;;;;;20.50;6.00;;;;;;;0.85;90.35;98178.98;106483;1285;22642;-70
2023/01/31 08:16:20;;;;;;;17.20;5.00;;;;;;;0.90;90.32;98177.84;106232;1285;138316;-70
2023/01/31 08:18:47;;;;;;;11.60;4.20;;;;;;;0.93;90.05;98182.41;106346;1285;22550;-69
2023/01/31 08:21:15;;;;;;;16.80;5.10;;;;;;;0.96;89.64;98177.23;106469;1267;22540;-70
2023/01/31 08:23:42;;;;;;;13.00;5.20;;;;;;;0.98;89.20;98182.05;106189;1284;138179;-70
2023/01/31 08:26:17;;;;;;;13.70;4.90;;;;;;;0.99;89.22;98188.23;106338;1284;23783;-69
2023/01/31 08:28:46;;;;;;;14.20;5.60;;;;;;;1.00;89.16;98190.35;106240;1285;139419;-69
2023/01/31 08:31:19;;;;;;;11.70;4.10;;;;;;;1.01;89.19;98196.88;106657;1284;22617;-69
2023/01/31 08:33:46;;;;;;;12.40;4.00;;;;;;;1.02;88.77;98210.63;106919;1278;22554;-70
2023/01/31 08:36:19;;;;;;;14.80;5.60;;;;;;;1.04;88.68;98211.56;106914;1280;140032;-70
2023/01/31 08:38:48;;;;;;;11.40;4.50;;;;;;;1.06;88.66;98210.30;106551;1275;23025;-70
2023/01/31 08:41:17;;;;;;;16.10;5.00;;;;;;;1.08;88.62;98215.94;107405;1274;22967;-70
2023/01/31 08:43:44;;;;;;;13.40;4.90;;;;;;;1.09;88.35;98218.39;107444;1285;137890;-70
2023/01/31 08:46:11;;;;;;;10.90;4.20;;;;;;;1.11;88.58;98224.76;106837;1276;23947;-72
2023/01/31 08:48:39;;;;;;;11.60;3.90;;;;;;;1.13;88.50;98227.23;106637;1282;137973;-70
2023/01/31 08:51:09;;;;;;;12.20;4.70;;;;;;;1.14;88.24;98227.26;106534;1271;22584;-70
2023/01/31 08:53:37;;;;;;;13.00;4.60;;;;;;;1.13;88.22;98230.75;106409;1281;138190;-70
2023/01/31 08:56:06;;;;;;;14.40;4.90;;;;;;;1.13;88.30;98238.23;107225;1281;23540;-70
2023/01/31 08:58:36;;;;;;;15.20;5.30;;;;;;;1.12;88.45;98246.23;107031;1281;25462;-71
2023/01/31 09:01:06;;;;;;;13.40;4.50;;;;;;;1.10;88.47;98244.35;106530;1278;22563;-71
2023/01/31 09:03:34;;;;;;;18.40;5.50;;;;;;;1.08;88.62;98241.02;106631;1280;22559;-70
2023/01/31 09:06:03;;;;;;;14.20;5.00;;;;;;;1.08;88.50;98240.71;106299;1285;138581;-70
2023/01/31 09:08:31;;;;;;;20.90;5.70;;;;;;;1.08;88.68;98244.80;106444;1285;23342;-70
2023/01/31 09:10:59;;;;;;;19.60;5.50;;;;;;;1.08;88.66;98245.71;106719;1278;138824;-70
2023/01/31 09:13:27;;;;;;;11.80;5.10;;;;;;;1.10;88.56;98251.02;106349;1281;26084;-70
2023/01/31 09:15:58;;;;;;;17.20;5.20;;;;;;;1.10;88.51;98251.73;106325;1284;23995;-70
2023/01/31 09:18:25;;;;;;;13.50;4.80;;;;;;;1.11;88.32;98256.36;106444;1283;138010;-70
2023/01/31 09:20:52;;;;;;;17.00;5.70;;;;;;;1.12;88.24;98258.02;106435;1266;23240;-70
2023/01/31 09:23:20;;;;;;;14.50;5.20;;;;;;;1.13;88.12;98255.77;106314;1284;138701;-70
2023/01/31 09:25:54;;;;;;;13.50;5.00;;;;;;;1.14;88.03;98252.75;106347;1284;24074;-70
2023/01/31 09:28:22;;;;;;;17.80;5.20;;;;;;;1.16;87.92;98251.33;106278;1285;22563;-70
2023/01/31 09:30:51;;;;;;;18.00;5.40;;;;;;;1.17;87.82;98251.14;106396;1267;138118;-70
2023/01/31 09:33:20;;;;;;;15.50;5.90;;;;;;;1.19;87.64;98250.66;106337;1284;22646;-70
2023/01/31 09:36:04;;;;;;;20.30;6.80;;;;;;;1.20;87.40;98253.71;106288;1284;138015;-70
2023/01/31 09:38:32;;;;;;;21.00;6.50;;;;;;;1.22;87.44;98253.66;106463;1271;25268;-70
2023/01/31 09:41:02;;;;;;;21.20;6.70;;;;;;;1.25;87.41;98249.32;106234;1284;139690;-70
2023/01/31 09:43:36;;;;;;;25.60;6.70;;;;;;;1.28;87.05;98253.36;106299;1285;24303;-70
2023/01/31 09:46:09;;;;;;;16.60;5.30;;;;;;;1.31;86.45;98256.95;106485;1285;22709;-70
2023/01/31 09:48:41;;;;;;;15.00;5.30;;;;;;;1.32;86.64;98256.83;106171;1285;137999;-70
2023/01/31 09:51:12;;;;;;;17.00;5.30;;;;;;;1.33;86.31;98257.75;106538;1262;22594;-70
2023/01/31 09:53:41;;;;;;;14.30;4.90;;;;;;;1.35;86.45;98257.94;106155;1285;138086;-70
2023/01/31 09:56:23;;;;;;;18.20;5.10;;;;;;;1.37;86.35;98260.06;106540;1284;22711;-70
2023/01/31 09:58:56;;;;;;;12.80;4.30;;;;;;;1.37;86.19;98258.64;106249;1283;138659;-71
2023/01/31 10:01:52;;;;;;;15.00;4.30;;;;;;;1.36;86.56;98258.68;106327;1262;25390;-71
2023/01/31 10:04:38;;;;;;;11.50;4.40;;;;;;;1.37;86.68;98255.73;106324;1285;23912;-70
2023/01/31 10:07:31;;;;;;;15.90;4.70;;;;;;;1.33;86.72;98254.54;106304;1285;26203;-70
2023/01/31 10:10:19;;;;;;;13.80;5.10;;;;;;;1.28;87.04;98255.42;106318;1283;22700;-70
2023/01/31 10:12:52;;;;;;;21.30;5.50;;;;;;;1.23;87.46;98256.40;106312;1273;138384;-70
2023/01/31 10:15:31;;;;;;;20.70;6.70;;;;;;;1.18;87.73;98254.64;106871;1284;25123;-70
2023/01/31 10:18:05;;;;;;;20.20;6.40;;;;;;;1.13;88.05;98258.44;106252;1284;139057;-70
2023/01/31 10:20:45;;;;;;;21.30;7.50;;;;;;;1.10;88.34;98260.67;106699;1284;22549;-70
2023/01/31 10:23:18;;;;;;;16.10;5.30;;;;;;;1.06;88.64;98256.10;106205;1275;140330;-70
2023/01/31 10:25:54;;;;;;;14.00;6.30;;;;;;;1.04;88.90;98255.61;106690;1280;23903;-70
2023/01/31 10:28:37;;;;;;;19.20;6.00;;;;;;;1.02;89.16;98257.50;106290;1285;24272;-70
2023/01/31 10:31:34;;;;;;;20.80;6.50;;;;;;;1.01;89.45;98255.34;106392;1282;22632;-70
2023/01/31 10:34:09;;;;;;;17.80;4.70;;;;;;;1.01;89.49;98257.48;106393;1265;22565;-71
2023/01/31 10:36:43;;;;;;;16.10;5.20;;;;;;;1.00;89.39;98259.33;106262;1285;138958;-70
2023/01/31 10:39:17;;;;;;;18.40;5.00;;;;;;;1.00;89.18;98262.45;106416;1277;23311;-70
2023/01/31 10:41:51;;;;;;;19.60;5.20;;;;;;;0.99;88.94;98263.09;106455;1284;139907;-70
2023/01/31 10:44:26;;;;;;;20.20;5.70;;;;;;;0.98;88.72;98269.13;106996;1266;22287;-70
2023/01/31 10:46:58;;;;;;;14.70;5.20;;;;;;;0.98;88.80;98275.34;106209;1285;138661;-70
2023/01/31 10:49:26;;;;;;;12.50;4.40;;;;;;;1.00;88.80;98269.05;106399;1278;24252;-70
2023/01/31 10:51:54;;;;;;;13.50;5.10;;;;;;;1.04;88.75;98272.86;106302;1285;24075;-70
2023/01/31 10:54:39;;;;;;;18.60;5.40;;;;;;;1.04;88.78;98272.62;106241;1267;138452;-70
2023/01/31 10:57:06;;;;;;;14.20;5.50;;;;;;;1.07;88.58;98271.41;106377;1284;22545;-70
2023/01/31 10:59:42;;;;;;;22.80;5.50;;;;;;;1.09;88.52;98272.19;106995;1279;139269;-70
2023/01/31 11:02:27;;;;;;;13.80;6.10;;;;;;;1.12;88.35;98270.59;106400;1284;22565;-70
2023/01/31 11:04:57;;;;;;;18.70;5.10;;;;;;;1.13;88.03;98263.64;106551;1275;138280;-70
2023/01/31 11:07:30;;;;;;;17.70;5.80;;;;;;;1.14;88.11;98261.22;106276;1285;25357;-70
2023/01/31 11:09:57;;;;;;;19.20;4.70;;;;;;;1.17;87.56;98256.75;106315;1285;24259;-70
2023/01/31 11:12:50;;;;;;;15.50;4.80;;;;;;;1.18;86.95;98256.23;106243;1285;138989;-70
2023/01/31 11:15:19;;;;;;;14.40;4.30;;;;;;;1.21;86.93;98250.68;106312;1275;25366;-70
2023/01/31 11:17:47;;;;;;;18.80;4.90;;;;;;;1.23;86.44;98251.37;106459;1285;138396;-70
2023/01/31 11:20:26;;;;;;;15.20;4.50;;;;;;;1.26;86.36;98254.74;106751;1285;22674;-70
2023/01/31 11:22:55;;;;;;;15.00;5.60;;;;;;;1.28;85.28;98252.16;106588;1278;138273;-71
2023/01/31 11:25:24;;;;;;;17.80;5.10;;;;;;;1.29;85.03;98248.80;106750;1267;24260;-71
2023/01/31 11:27:54;;;;;;;14.90;4.50;;;;;;;1.30;85.07;98246.33;106498;1283;138035;-70
2023/01/31 11:30:29;;;;;;;15.00;4.00;;;;;;;1.32;84.31;98244.89;106539;1284;23119;-70
2023/01/31 11:32:57;;;;;;;12.40;4.70;;;;;;;1.31;83.69;98250.86;106321;1284;138184;-71
2023/01/31 11:35:30;;;;;;;18.50;4.00;;;;;;;1.30;83.39;98254.91;106813;1266;25381;-70
2023/01/31 11:38:20;;;;;;;15.90;5.00;;;;;;;1.28;83.11;98256.82;106394;1277;22795;-70
2023/01/31 11:40:48;;;;;;;8.80;3.70;;;;;;;1.26;83.74;98254.05;106456;1284;138127;-70
2023/01/31 11:43:18;;;;;;;11.30;3.60;;;;;;;1.27;83.82;98251.77;106745;1283;23514;-71
2023/01/31 11:45:52;;;;;;;12.30;3.70;;;;;;;1.27;83.34;98254.92;106560;1284;138451;-70
2023/01/31 11:48:40;;;;;;;18.30;4.00;;;;;;;1.27;82.99;98254.41;106431;1284;22667;-70
2023/01/31 11:51:09;;;;;;;14.30;4.10;;;;;;;1.29;83.27;98248.86;106293;1280;138180;-71